Airfield :
LOGIN :

Register | Disclaimer

   EN    FR    IT 

 










Legend :    VFR   Marginal VFR   IFR   Intensive IFR   Very Intensive IFR
Visi :
Ceiling :
>= 8 km
>= 3000ft
5 to 8 km
1000 to 3000 ft
1500m to 5 km
500 to 1000 ft
800 to 1500m
200 to 500 ft
< 800m
< 200 ft
Symbols :   Thunderstorms  Fog  Heavy snow  Heavy precipitations  Wind > 20 kt
SIGMETs :     Misc.  Thunderstorms  Icing  Turbulence  Mountain Waves  Volcanic Ashes







- Airport Elevation : 170 ft
- IATA code : KRP


EKKA - Karup

CURRENT METAR :
  • 200120Z AUTO 21004KT 4700 BR FEW097/// 16/15 Q1005

EXPIRED METARs :
  • 200050Z AUTO 19004KT 6000 OVC100/// 17/16 Q1005
  • 200020Z AUTO 18003KT 7000 BKN100/// 17/16 Q1005
  • 200001Z AUTO 22005KT 7000 BKN100/// 18/16 Q1005
  • 192350Z AUTO 21005KT 9000 BKN100/// 18/16 Q1005
  • 192320Z AUTO 20005KT 9999 BKN100/// 18/16 Q1005
  • 192250Z AUTO 18005KT 9999 BKN100/// 19/16 Q1005

TAF TAF EKKA
Valid from the 20 at 00:00 until the 21 at 00:00 UTC


192311Z 2000/2024 17010KT 9999 SCT050 SCT100
BECMG 2003/2005 20005KT 7000 BKN008
TEMPO 2005/2007 4000 BR -RA BKN003
BECMG 2007/2009 26012KT 9999 SCT020
TEMPO 2009/2011 BKN008
No reported NOTAMs for that airfield.



MET'MAP, your aeronautical weather chart ! - Copyright ORBIFLY December 2007 - Disclaimer

ORBIFLY MET'MAP TEAM :

Programming & Development : Alexandra Zaïnal
Concept & Development : Baudouin d'Aumeries
Co-Development & Prog : Marc-Olivier Méhu
Technical & hardware support : Manuel Goepfert

Contact : metmap@orbifly.com




SOURCES & CREDITS :

   NOAA